createdAt,value
2023-04-17T00:04:11.386Z,9.10
2023-04-17T00:09:04.474Z,9.37
2023-04-17T00:13:56.509Z,9.27
2023-04-17T00:18:48.570Z,9.83
2023-04-17T00:23:40.794Z,9.23
2023-04-17T00:28:33.496Z,10.03
2023-04-17T00:33:25.873Z,9.13
2023-04-17T00:38:18.776Z,9.33
2023-04-17T00:43:11.057Z,9.83
2023-04-17T00:48:06.836Z,8.90
2023-04-17T00:52:59.662Z,8.83
2023-04-17T00:57:51.774Z,8.17
2023-04-17T01:02:45.053Z,8.27
2023-04-17T01:13:22.519Z,8.57
2023-04-17T01:18:16.610Z,7.83
2023-04-17T01:23:09.296Z,7.73
2023-04-17T01:28:01.388Z,6.73
2023-04-17T01:32:56.077Z,6.27
2023-04-17T01:37:48.139Z,6.47
2023-04-17T01:42:40.377Z,5.67
2023-04-17T01:47:35.000Z,4.97
2023-04-17T01:52:27.132Z,4.63
2023-04-17T01:57:19.201Z,4.10
2023-04-17T02:02:11.327Z,3.53
2023-04-17T02:07:03.458Z,3.60
2023-04-17T02:11:56.899Z,3.83
2023-04-17T02:16:48.919Z,4.17
2023-04-17T02:21:40.927Z,4.30
2023-04-17T02:26:34.179Z,4.03
2023-04-17T02:31:26.386Z,3.80
2023-04-17T02:36:18.508Z,3.50
2023-04-17T02:41:11.426Z,3.97
2023-04-17T02:46:05.327Z,4.60
2023-04-17T02:50:58.850Z,4.67
2023-04-17T02:55:51.145Z,5.13
2023-04-17T03:00:47.410Z,4.73
2023-04-17T03:05:42.457Z,4.43
2023-04-17T03:10:35.248Z,3.93
2023-04-17T03:15:27.416Z,4.37
2023-04-17T03:20:19.571Z,4.17
2023-04-17T03:25:11.655Z,4.33
2023-04-17T03:30:11.249Z,4.50
2023-04-17T03:35:06.661Z,4.30
2023-04-17T03:39:59.437Z,5.40
2023-04-17T03:44:52.205Z,4.20
2023-04-17T03:49:44.953Z,5.23
2023-04-17T03:54:38.447Z,5.00
2023-04-17T03:59:32.014Z,4.63
2023-04-17T04:04:24.843Z,4.50
2023-04-17T04:09:25.541Z,4.70
2023-04-17T04:14:17.594Z,4.20
2023-04-17T04:19:13.080Z,3.63
2023-04-17T04:24:05.608Z,4.10
2023-04-17T04:29:00.122Z,3.57
2023-04-17T04:34:02.426Z,3.63
2023-04-17T04:38:59.892Z,3.73
2023-04-17T04:43:57.397Z,4.30
2023-04-17T04:48:49.619Z,1.13
2023-04-17T04:53:41.843Z,0.80
2023-04-17T04:58:35.273Z,0.70
2023-04-17T05:03:29.243Z,0.90
2023-04-17T05:08:21.482Z,0.77
2023-04-17T05:13:23.074Z,0.90
2023-04-17T05:18:16.651Z,1.13
2023-04-17T05:23:09.009Z,1.10
2023-04-17T05:28:01.283Z,1.23
2023-04-17T05:32:54.491Z,2.10
2023-04-17T05:37:56.969Z,2.30
2023-04-17T05:42:49.107Z,2.70
2023-04-17T05:47:41.883Z,3.40
2023-04-17T05:52:34.201Z,3.60
2023-04-17T05:57:26.313Z,4.07
2023-04-17T06:02:18.465Z,3.83
2023-04-17T06:07:11.880Z,4.30
2023-04-17T06:12:04.782Z,3.63
2023-04-17T06:16:58.014Z,3.70
2023-04-17T06:21:50.694Z,3.80
2023-04-17T06:26:45.137Z,3.47
2023-04-17T06:31:37.774Z,3.30
2023-04-17T06:36:31.046Z,3.03
2023-04-17T06:41:25.099Z,3.13
2023-04-17T06:46:19.000Z,3.60
2023-04-17T06:51:11.217Z,2.93
2023-04-17T06:56:03.505Z,2.80
2023-04-17T07:00:55.813Z,2.20
2023-04-17T07:05:48.964Z,1.87
2023-04-17T07:10:41.169Z,1.50
2023-04-17T07:15:33.249Z,2.40
2023-04-17T07:20:25.624Z,2.10
2023-04-17T07:25:17.816Z,2.37
2023-04-17T07:30:10.504Z,2.00
2023-04-17T07:35:02.659Z,1.90
2023-04-17T07:39:54.829Z,1.47
2023-04-17T07:44:48.439Z,1.33
2023-04-17T07:49:40.701Z,1.00
2023-04-17T07:54:33.202Z,1.10
2023-04-17T07:59:25.518Z,0.97
2023-04-17T08:04:17.687Z,1.10
2023-04-17T08:09:10.165Z,1.60
2023-04-17T08:14:03.029Z,1.10
2023-04-17T08:18:55.154Z,1.27
2023-04-17T08:23:48.845Z,1.30
2023-04-17T08:28:41.642Z,1.80
2023-04-17T08:33:33.890Z,1.40
2023-04-17T08:38:27.503Z,1.30
2023-04-17T08:43:21.198Z,1.70
2023-04-17T08:48:13.625Z,2.40
2023-04-17T08:53:06.525Z,3.50
2023-04-17T08:58:04.098Z,3.10
2023-04-17T09:02:58.195Z,3.47
2023-04-17T09:08:05.581Z,4.10
2023-04-17T09:13:01.390Z,3.00
2023-04-17T09:17:53.456Z,3.40
2023-04-17T09:22:46.600Z,2.80
2023-04-17T09:27:38.676Z,2.90
2023-04-17T09:32:32.925Z,2.80
2023-04-17T09:37:25.664Z,3.13
2023-04-17T09:42:17.761Z,3.47
2023-04-17T09:47:12.493Z,3.87
2023-04-17T09:52:04.637Z,4.00
2023-04-17T09:56:57.868Z,4.27
2023-04-17T10:01:50.921Z,4.20
2023-04-17T10:06:43.366Z,6.63
2023-04-17T10:11:44.910Z,3.90
2023-04-17T10:16:38.731Z,2.97
2023-04-17T10:21:31.216Z,2.80
2023-04-17T10:26:26.600Z,2.80
2023-04-17T10:31:23.698Z,4.80
2023-04-17T10:36:37.889Z,3.33
2023-04-17T10:41:32.435Z,4.07
2023-04-17T10:46:26.562Z,3.90
2023-04-17T10:51:21.715Z,4.23
2023-04-17T10:56:19.264Z,4.73
2023-04-17T11:01:12.335Z,4.40
2023-04-17T11:06:05.501Z,3.90
2023-04-17T11:10:57.873Z,4.60
2023-04-17T11:15:51.272Z,4.40
2023-04-17T11:20:43.548Z,4.70
2023-04-17T11:25:35.834Z,4.47
2023-04-17T11:30:44.555Z,4.20
2023-04-17T11:35:41.570Z,4.10
2023-04-17T11:40:35.147Z,4.40
2023-04-17T11:45:31.755Z,4.00
2023-04-17T11:50:28.803Z,4.53
2023-04-17T11:55:21.007Z,4.73
2023-04-17T12:00:16.207Z,5.70
2023-04-17T12:05:15.774Z,5.30
2023-04-17T12:10:08.665Z,4.83
2023-04-17T12:15:01.062Z,5.20
2023-04-17T12:19:53.889Z,5.87
2023-04-17T12:24:45.902Z,5.03
2023-04-17T12:34:34.835Z,4.77
2023-04-17T12:39:27.010Z,5.17
2023-04-17T12:44:18.924Z,4.30
2023-04-17T12:49:11.403Z,5.73
2023-04-17T12:54:03.888Z,4.40
2023-04-17T12:58:56.136Z,6.03
2023-04-17T13:03:48.424Z,5.03
2023-04-17T13:08:40.679Z,5.93
2023-04-17T13:13:32.788Z,6.70
2023-04-17T13:18:24.969Z,5.60
2023-04-17T13:23:17.123Z,5.60
2023-04-17T13:28:09.211Z,6.40
2023-04-17T13:33:01.426Z,6.73
2023-04-17T13:37:54.997Z,8.20
2023-04-17T13:42:47.053Z,6.77
2023-04-17T13:47:41.512Z,7.53
2023-04-17T13:52:33.596Z,7.57
2023-04-17T13:57:25.679Z,7.43
2023-04-17T14:02:17.916Z,7.57
2023-04-17T14:07:12.824Z,7.17
2023-04-17T14:12:05.018Z,7.80
2023-04-17T14:16:57.124Z,6.93
2023-04-17T14:21:49.218Z,8.37
2023-04-17T14:26:42.099Z,8.13
2023-04-17T14:31:34.551Z,9.20
2023-04-17T14:36:26.685Z,8.20
2023-04-17T14:41:19.978Z,8.37
2023-04-17T14:46:12.851Z,8.70
2023-04-17T14:51:05.388Z,7.70
2023-04-17T14:55:59.220Z,8.23
2023-04-17T15:00:51.342Z,10.23
2023-04-17T15:05:45.553Z,6.97
2023-04-17T15:10:50.361Z,7.57
2023-04-17T15:15:43.429Z,7.07
2023-04-17T15:20:36.573Z,8.63
2023-04-17T15:25:29.508Z,7.97
2023-04-17T15:30:21.889Z,9.27
2023-04-17T15:35:14.158Z,10.20
2023-04-17T15:40:08.042Z,8.87
2023-04-17T15:45:01.565Z,10.10
2023-04-17T15:49:53.612Z,8.27
2023-04-17T15:54:45.659Z,7.60
2023-04-17T15:59:37.882Z,6.27
2023-04-17T16:04:30.049Z,4.20
2023-04-17T16:09:24.493Z,4.60
2023-04-17T16:14:16.847Z,3.80
2023-04-17T16:19:09.264Z,3.90
2023-04-17T16:24:01.374Z,3.90
2023-04-17T16:28:53.458Z,3.97
2023-04-17T16:33:45.983Z,4.03
2023-04-17T16:38:39.708Z,4.00
2023-04-17T16:43:33.508Z,3.70
2023-04-17T16:48:25.884Z,3.40
2023-04-17T16:53:18.464Z,4.03
2023-04-17T16:58:10.721Z,4.00
2023-04-17T17:03:03.202Z,3.90
2023-04-17T17:07:55.370Z,3.73
2023-04-17T17:12:47.501Z,3.57
2023-04-17T17:17:39.955Z,3.87
2023-04-17T17:22:32.092Z,3.20
2023-04-17T17:27:24.141Z,3.53
2023-04-17T17:32:16.873Z,4.40
2023-04-17T17:37:09.069Z,3.37
2023-04-17T17:42:04.252Z,3.67
2023-04-17T17:46:56.252Z,4.07
2023-04-17T17:51:48.279Z,3.90
2023-04-17T17:56:40.447Z,4.60
2023-04-17T18:01:32.615Z,4.20
2023-04-17T18:06:25.984Z,4.07
2023-04-17T18:11:18.097Z,5.07
2023-04-17T18:16:10.584Z,3.97
2023-04-17T18:21:07.119Z,4.77
2023-04-17T18:26:00.251Z,4.60
2023-04-17T18:30:52.329Z,5.13
2023-04-17T18:35:44.677Z,4.50
2023-04-17T18:40:36.736Z,4.60
2023-04-17T18:45:28.915Z,4.37
2023-04-17T18:50:21.274Z,4.60
2023-04-17T18:55:13.905Z,4.30
2023-04-17T19:00:06.629Z,4.73
2023-04-17T19:04:58.791Z,4.50
2023-04-17T19:09:50.918Z,4.63
2023-04-17T19:14:42.994Z,5.80
2023-04-17T19:19:35.034Z,5.83
2023-04-17T19:24:27.174Z,6.17
2023-04-17T19:29:19.244Z,6.43
2023-04-17T19:34:11.325Z,6.10
2023-04-17T19:39:04.877Z,6.47
2023-04-17T19:43:56.910Z,5.83
2023-04-17T19:48:49.922Z,6.07
2023-04-17T19:53:43.375Z,6.67
2023-04-17T19:58:36.510Z,6.87
2023-04-17T20:03:30.554Z,8.00
2023-04-17T20:08:22.863Z,7.47
2023-04-17T20:13:14.940Z,7.10
2023-04-17T20:18:08.956Z,7.67
2023-04-17T20:23:01.233Z,7.30
2023-04-17T20:27:54.963Z,7.70
2023-04-17T20:32:48.245Z,7.97
2023-04-17T20:37:44.326Z,8.23
2023-04-17T20:42:36.523Z,7.87
2023-04-17T20:47:28.596Z,8.23
2023-04-17T20:52:20.820Z,8.40
2023-04-17T20:57:12.850Z,8.87
2023-04-17T21:02:05.056Z,8.03
2023-04-17T21:06:57.243Z,7.90
2023-04-17T21:11:49.819Z,7.67
2023-04-17T21:16:44.492Z,7.00
2023-04-17T21:21:36.850Z,6.83
2023-04-17T21:26:29.418Z,7.20
2023-04-17T21:31:21.561Z,6.20
2023-04-17T21:36:14.228Z,6.73
2023-04-17T21:41:06.350Z,7.37
2023-04-17T21:45:58.637Z,6.43
2023-04-17T21:50:51.202Z,6.30
2023-04-17T21:55:43.353Z,6.50
2023-04-17T22:00:35.391Z,7.00
2023-04-17T22:05:29.834Z,6.00
2023-04-17T22:10:23.148Z,5.70
2023-04-17T22:15:15.104Z,6.27
2023-04-17T22:20:09.212Z,5.83
2023-04-17T22:25:01.287Z,5.73
2023-04-17T22:29:53.309Z,5.60
2023-04-17T22:34:49.182Z,6.40
2023-04-17T22:39:41.216Z,8.17
2023-04-17T22:44:33.485Z,7.70
2023-04-17T22:49:25.525Z,7.07
2023-04-17T22:54:22.857Z,8.87
2023-04-17T22:59:15.504Z,8.37
2023-04-17T23:04:07.804Z,9.43
2023-04-17T23:08:59.900Z,9.90
2023-04-17T23:13:51.933Z,11.10
2023-04-17T23:18:43.936Z,10.87
2023-04-17T23:23:36.332Z,11.40
2023-04-17T23:28:30.730Z,12.93
2023-04-17T23:33:22.830Z,13.50
2023-04-17T23:38:14.844Z,13.03
2023-04-17T23:43:07.410Z,15.50
2023-04-17T23:47:59.558Z,16.53
2023-04-17T23:52:53.415Z,17.80
2023-04-17T23:57:45.405Z,20.20
